Impacts TAF Board
For situational awareness. Not to be used for flight planning purposes.
IDs:

KCEC - Crescent City/McNama, CA, US

Issued at 1916 UTC 06 Dec 2019
Updated at 2109 UTC 06 Dec 2019
Potential Impact None Slight Moderate High
Time2056Z 06/22Z 06/23Z 07/00Z 07/01Z 07/02Z 07/03Z 07/04Z 07/05Z 07/06Z 07/07Z 07/08Z 07/09Z 07/10Z>>
Type OBS PRVL PRVL PRVL PRVL PRVL PRVL PRVL PRVL PRVL PRVL PRVL PRVL PRVL
VIS 10 6 6 6 6 6 6 6 5 5 5 5 5 5
CIG 60 30 30 30 30 30 30 30 20 20 20 20 20 20
Cover OVC OVC OVC OVC OVC OVC OVC OVC OVC OVC OVC OVC OVC OVC
FltCat VFR MVFR MVFR MVFR MVFR MVFR MVFR MVFR MVFR MVFR MVFR MVFR MVFR MVFR
WX -- -RA -RA -RA -RA -RA -RA -RA -RA -RA -RA -RA -RA -RA
WDir 50 160 160 160 160 160 160 160 160 160 160 160 160 160
WSpd 3 16 16 16 16 16 16 16 10 10 10 10 10 10
WGst -- 24 24 24 24 24 24 24 15 15 15 15 15 15
Raw TAF
KCEC 061916Z 0619/0718 18015G25KT P6SM VCSH BKN050 OVC100 WS020/17040KT
  FM062200 16016G24KT 6SM -RA BKN030 OVC050
  FM070500 16010G15KT 5SM -RA BKN020 OVC030
  FM071200 15015KT 4SM -RA OVC025


Raw METAR
KCEC 062056Z AUTO 05003KT 10SM OVC060 16/09 A2977 RMK AO2 RAB37E51 SLP081 P0001 60001 T01560094 58026
KCEC 061956Z AUTO 17006KT 10SM BKN075 OVC095 15/09 A2982 RMK AO2 PK WND 18026/1904 RAB08E38 SLP100 P0000 T01500089
KCEC 061856Z AUTO 17018G29KT 10SM OVC080 16/07 A2985 RMK AO2 PK WND 17034/1834 RAE08 SLP108 P0000 T01610067

METAR Board
Radar Display
Forecast Discussion
For situational awareness. Not to be used for flight planning purposes.